createdAt,value
2023-01-15T00:00:13.170Z,96159.50
2023-01-15T00:02:41.819Z,96146.81
2023-01-15T00:05:10.858Z,96135.63
2023-01-15T00:07:39.862Z,96140.09
2023-01-15T00:10:12.632Z,96129.91
2023-01-15T00:12:41.496Z,96137.00
2023-01-15T00:15:10.503Z,96130.69
2023-01-15T00:17:39.202Z,96131.06
2023-01-15T00:20:09.532Z,96131.34
2023-01-15T00:22:38.527Z,96131.34
2023-01-15T00:25:28.277Z,96124.72
2023-01-15T00:27:57.383Z,96120.69
2023-01-15T00:30:26.192Z,96107.09
2023-01-15T00:32:55.286Z,96107.72
2023-01-15T00:35:25.107Z,96109.88
2023-01-15T00:37:54.400Z,96102.56
2023-01-15T00:40:27.684Z,96097.63
2023-01-15T00:42:56.382Z,96094.84
2023-01-15T00:45:25.307Z,96102.09
2023-01-15T00:47:55.192Z,96108.69
2023-01-15T00:50:24.287Z,96108.28
2023-01-15T00:52:52.683Z,96111.06
2023-01-15T00:55:22.438Z,96107.22
2023-01-15T00:57:52.518Z,96097.59
2023-01-15T01:00:21.543Z,96093.28
2023-01-15T01:02:50.319Z,96095.44
2023-01-15T01:05:18.544Z,96089.69
2023-01-15T01:07:46.818Z,96088.31
2023-01-15T01:10:15.681Z,96082.38
2023-01-15T01:12:44.244Z,96078.09
2023-01-15T01:15:13.961Z,96088.72
2023-01-15T01:17:42.532Z,96089.13
2023-01-15T01:20:18.366Z,96085.84
2023-01-15T01:22:50.060Z,96090.47
2023-01-15T01:25:18.878Z,96098.47
2023-01-15T01:27:48.110Z,96079.19
2023-01-15T01:30:19.482Z,96067.91
2023-01-15T01:32:48.463Z,96064.66
2023-01-15T01:35:18.040Z,96065.34
2023-01-15T01:37:51.359Z,96063.28
2023-01-15T01:40:20.754Z,96058.34
2023-01-15T01:42:49.866Z,96058.91
2023-01-15T01:45:25.786Z,96049.50
2023-01-15T01:47:56.589Z,96047.75
2023-01-15T01:50:25.769Z,96036.75
2023-01-15T01:53:01.697Z,96023.59
2023-01-15T01:55:35.134Z,96022.31
2023-01-15T01:58:05.643Z,96016.75
2023-01-15T02:00:38.234Z,96010.84
2023-01-15T02:03:10.329Z,96017.25
2023-01-15T02:05:42.991Z,96014.59
2023-01-15T02:08:11.751Z,96016.34
2023-01-15T02:10:41.714Z,96016.44
2023-01-15T02:13:18.203Z,96016.59
2023-01-15T02:15:50.304Z,96011.78
2023-01-15T02:18:22.370Z,96005.72
2023-01-15T02:20:53.209Z,95998.81
2023-01-15T02:23:32.379Z,95980.84
2023-01-15T02:26:25.807Z,95974.94
2023-01-15T02:28:59.220Z,95971.16
2023-01-15T02:31:31.253Z,95962.66
2023-01-15T02:34:03.679Z,95950.22
2023-01-15T02:36:45.130Z,95949.31
2023-01-15T02:39:22.380Z,95956.03
2023-01-15T02:41:53.756Z,95947.22
2023-01-15T02:44:25.404Z,95947.31
2023-01-15T02:47:00.728Z,95944.69
2023-01-15T02:49:33.189Z,95941.91
2023-01-15T02:52:09.285Z,95939.13
2023-01-15T02:54:44.038Z,95940.31
2023-01-15T02:57:13.880Z,95933.28
2023-01-15T02:59:47.232Z,95930.63
2023-01-15T03:02:21.562Z,95940.72
2023-01-15T03:04:54.989Z,95938.16
2023-01-15T03:07:27.642Z,95937.34
2023-01-15T03:09:58.575Z,95934.38
2023-01-15T03:12:29.692Z,95926.97
2023-01-15T03:15:08.454Z,95929.84
2023-01-15T03:17:40.318Z,95926.88
2023-01-15T03:20:13.392Z,95929.25
2023-01-15T03:22:46.700Z,95933.28
2023-01-15T03:25:19.274Z,95937.72
2023-01-15T03:27:55.440Z,95929.13
2023-01-15T03:30:26.836Z,95932.22
2023-01-15T03:32:56.598Z,95921.78
2023-01-15T03:35:46.196Z,95935.91
2023-01-15T03:38:27.370Z,95938.63
2023-01-15T03:41:01.432Z,95927.41
2023-01-15T03:43:44.800Z,95927.53
2023-01-15T03:46:28.336Z,95906.50
2023-01-15T03:49:03.565Z,95923.66
2023-01-15T03:51:37.285Z,95902.97
2023-01-15T03:54:09.645Z,95904.03
2023-01-15T03:56:48.592Z,95891.59
2023-01-15T03:59:22.184Z,95892.88
2023-01-15T04:02:00.285Z,95883.41
2023-01-15T04:04:30.178Z,95881.63
2023-01-15T04:07:00.534Z,95891.50
2023-01-15T04:09:29.632Z,95880.44
2023-01-15T04:12:01.245Z,95890.69
2023-01-15T04:14:34.425Z,95877.25
2023-01-15T04:17:10.232Z,95875.56
2023-01-15T04:19:39.302Z,95883.97
2023-01-15T04:22:12.011Z,95879.34
2023-01-15T04:24:40.988Z,95887.13
2023-01-15T04:27:10.203Z,95889.13
2023-01-15T04:29:39.203Z,95891.41
2023-01-15T04:32:09.624Z,95890.13
2023-01-15T04:34:38.633Z,95881.44
2023-01-15T04:37:08.132Z,95884.78
2023-01-15T04:39:36.913Z,95880.75
2023-01-15T04:42:23.688Z,95879.22
2023-01-15T04:45:12.819Z,95867.41
2023-01-15T04:47:43.182Z,95859.47
2023-01-15T04:50:12.730Z,95868.94
2023-01-15T04:52:41.748Z,95852.34
2023-01-15T04:55:11.132Z,95851.97
2023-01-15T04:57:40.123Z,95851.97
2023-01-15T05:00:10.570Z,95839.31
2023-01-15T05:02:40.574Z,95852.75
2023-01-15T05:05:11.507Z,95843.47
2023-01-15T05:07:40.512Z,95848.63
2023-01-15T05:10:10.944Z,95838.91
2023-01-15T05:12:40.116Z,95842.25
2023-01-15T05:15:10.233Z,95841.47
2023-01-15T05:17:39.344Z,95832.59
2023-01-15T05:20:15.201Z,95826.19
2023-01-15T05:22:44.198Z,95827.16
2023-01-15T05:25:13.184Z,95821.53
2023-01-15T05:27:42.835Z,95834.38
2023-01-15T05:30:13.221Z,95822.91
2023-01-15T05:32:41.882Z,95825.88
2023-01-15T05:35:12.855Z,95835.56
2023-01-15T05:37:42.155Z,95834.38
2023-01-15T05:40:14.747Z,95822.72
2023-01-15T05:42:45.322Z,95836.47
2023-01-15T05:45:14.265Z,95831.53
2023-01-15T05:47:43.252Z,95819.16
2023-01-15T05:50:14.073Z,95832.09
2023-01-15T05:52:43.079Z,95826.97
2023-01-15T05:55:11.973Z,95820.91
2023-01-15T05:57:41.273Z,95817.06
2023-01-15T06:00:11.293Z,95818.53
2023-01-15T06:02:43.908Z,95813.19
2023-01-15T06:05:14.511Z,95812.00
2023-01-15T06:07:43.708Z,95810.06
2023-01-15T06:10:12.702Z,95818.34
2023-01-15T06:12:41.543Z,95814.22
2023-01-15T06:15:11.981Z,95811.84
2023-01-15T06:17:40.911Z,95813.81
2023-01-15T06:20:14.725Z,95816.88
2023-01-15T06:22:43.744Z,95810.84
2023-01-15T06:25:15.776Z,95820.34
2023-01-15T06:27:44.922Z,95809.84
2023-01-15T06:30:14.382Z,95808.19
2023-01-15T06:32:43.378Z,95812.84
2023-01-15T06:35:14.624Z,95816.19
2023-01-15T06:37:44.127Z,95812.44
2023-01-15T06:40:14.033Z,95816.09
2023-01-15T06:43:03.620Z,95800.75
2023-01-15T06:45:55.835Z,95807.69
2023-01-15T06:48:25.273Z,95806.72
2023-01-15T06:50:55.763Z,95804.56
2023-01-15T06:53:24.684Z,95801.78
2023-01-15T06:55:53.354Z,95801.38
2023-01-15T06:58:23.492Z,95794.63
2023-01-15T07:00:56.221Z,95791.50
2023-01-15T07:03:25.377Z,95798.22
2023-01-15T07:05:56.006Z,95797.53
2023-01-15T07:08:27.457Z,95786.97
2023-01-15T07:10:56.845Z,95791.69
2023-01-15T07:13:25.755Z,95787.53
2023-01-15T07:15:54.889Z,95789.50
2023-01-15T07:18:24.011Z,95784.56
2023-01-15T07:20:57.960Z,95784.91
2023-01-15T07:23:27.756Z,95783.28
2023-01-15T07:25:57.083Z,95786.84
2023-01-15T07:28:29.261Z,95777.50
2023-01-15T07:31:00.084Z,95783.69
2023-01-15T07:33:29.691Z,95786.72
2023-01-15T07:36:00.402Z,95781.53
2023-01-15T07:38:30.035Z,95787.88
2023-01-15T07:41:12.572Z,95778.78
2023-01-15T07:44:04.057Z,95781.91
2023-01-15T07:46:50.387Z,95776.28
2023-01-15T07:49:37.179Z,95770.94
2023-01-15T07:52:07.712Z,95769.69
2023-01-15T07:54:36.710Z,95765.31
2023-01-15T07:57:05.629Z,95763.00
2023-01-15T07:59:34.795Z,95763.84
2023-01-15T08:02:04.826Z,95763.31
2023-01-15T08:04:33.909Z,95748.25
2023-01-15T08:07:02.945Z,95748.78
2023-01-15T08:09:33.130Z,95755.88
2023-01-15T08:12:20.350Z,95738.22
2023-01-15T08:15:06.954Z,95748.22
2023-01-15T08:17:39.349Z,95747.09
2023-01-15T08:20:10.451Z,95740.72
2023-01-15T08:22:40.241Z,95750.31
2023-01-15T08:25:12.118Z,95734.50
2023-01-15T08:27:41.928Z,95730.84
2023-01-15T08:30:14.455Z,95737.22
2023-01-15T08:32:42.766Z,95732.41
2023-01-15T08:35:13.122Z,95732.88
2023-01-15T08:37:41.564Z,95739.63
2023-01-15T08:40:13.209Z,95741.66
2023-01-15T08:42:42.150Z,95719.97
2023-01-15T08:45:10.957Z,95733.34
2023-01-15T08:47:39.322Z,95741.19
2023-01-15T08:50:08.788Z,95735.63
2023-01-15T08:52:38.000Z,95727.19
2023-01-15T08:55:07.109Z,95728.56
2023-01-15T08:57:38.583Z,95724.38
2023-01-15T09:00:08.588Z,95720.09
2023-01-15T09:02:36.941Z,95708.03
2023-01-15T09:05:05.862Z,95726.91
2023-01-15T09:07:35.453Z,95713.63
2023-01-15T09:10:04.446Z,95726.22
2023-01-15T09:12:32.950Z,95725.44
2023-01-15T09:15:03.496Z,95718.47
2023-01-15T09:17:33.822Z,95716.59
2023-01-15T09:20:03.210Z,95716.78
2023-01-15T09:22:31.658Z,95722.09
2023-01-15T09:25:00.599Z,95713.56
2023-01-15T09:27:29.703Z,95713.47
2023-01-15T09:29:58.402Z,95713.09
2023-01-15T09:32:28.035Z,95711.66
2023-01-15T09:34:57.118Z,95699.66
2023-01-15T09:37:26.141Z,95697.44
2023-01-15T09:39:54.387Z,95698.81
2023-01-15T09:42:34.232Z,95696.97
2023-01-15T09:45:11.740Z,95696.31
2023-01-15T09:47:47.679Z,95693.53
2023-01-15T09:50:25.601Z,95692.53
2023-01-15T09:53:08.921Z,95696.31
2023-01-15T09:55:41.984Z,95715.91
2023-01-15T09:58:15.259Z,95731.66
2023-01-15T10:00:46.024Z,95786.81
2023-01-15T10:03:27.209Z,95786.94
2023-01-15T10:06:00.298Z,95798.72
2023-01-15T10:08:31.977Z,95818.47
2023-01-15T10:11:04.145Z,95828.22
2023-01-15T10:13:37.593Z,95836.06
2023-01-15T10:16:06.364Z,95827.59
2023-01-15T10:18:37.038Z,95837.97
2023-01-15T10:21:22.037Z,95836.00
2023-01-15T10:23:58.008Z,95853.16
2023-01-15T10:26:33.157Z,95866.56
2023-01-15T10:29:04.633Z,95881.66
2023-01-15T10:31:48.612Z,95872.63
2023-01-15T10:34:52.655Z,95895.53
2023-01-15T10:37:27.172Z,95906.00
2023-01-15T10:40:21.529Z,95928.75
2023-01-15T10:42:55.740Z,95931.19
2023-01-15T10:45:26.000Z,95952.38
2023-01-15T10:47:57.016Z,95940.78
2023-01-15T10:50:27.997Z,95931.72
2023-01-15T10:53:04.254Z,95943.47
2023-01-15T10:55:36.018Z,95949.81
2023-01-15T10:58:11.065Z,95945.28
2023-01-15T11:00:40.697Z,95958.75
2023-01-15T11:03:16.554Z,95958.88
2023-01-15T11:05:47.305Z,95953.88
2023-01-15T11:11:22.883Z,95960.41
2023-01-15T11:14:13.313Z,95967.22
2023-01-15T11:17:00.807Z,95971.50
2023-01-15T11:19:41.184Z,95977.25
2023-01-15T11:22:13.139Z,95978.53
2023-01-15T11:24:49.158Z,95976.28
2023-01-15T11:27:20.855Z,95977.88
2023-01-15T11:29:53.639Z,95978.75
2023-01-15T11:32:26.981Z,95984.81
2023-01-15T11:34:57.152Z,95978.19
2023-01-15T11:37:28.500Z,95982.34
2023-01-15T11:40:00.668Z,95985.59
2023-01-15T11:42:46.970Z,95997.88
2023-01-15T11:45:36.421Z,96006.41
2023-01-15T11:48:33.156Z,96003.31
2023-01-15T11:51:06.968Z,96009.25
2023-01-15T11:53:43.677Z,96002.72
2023-01-15T11:56:15.232Z,96014.50
2023-01-15T11:58:47.890Z,96019.47
2023-01-15T12:01:26.770Z,96021.41
2023-01-15T12:03:56.476Z,96024.00
2023-01-15T12:06:25.464Z,96032.81
2023-01-15T12:08:58.994Z,96038.84
2023-01-15T12:11:35.676Z,96043.50
2023-01-15T12:14:22.157Z,96056.03
2023-01-15T12:16:57.256Z,96073.66
2023-01-15T12:19:36.503Z,96092.03
2023-01-15T12:22:18.302Z,96096.09
2023-01-15T12:25:15.279Z,96111.72
2023-01-15T12:28:01.242Z,96119.16
2023-01-15T12:30:39.954Z,96126.44
2023-01-15T12:33:18.774Z,96121.47
2023-01-15T12:35:56.353Z,96134.97
2023-01-15T12:38:39.089Z,96130.53
2023-01-15T12:41:13.195Z,96136.75
2023-01-15T12:44:06.548Z,96150.25
2023-01-15T12:46:36.392Z,96151.34
2023-01-15T12:49:08.445Z,96151.34
2023-01-15T12:51:43.586Z,96146.94
2023-01-15T12:54:17.640Z,96148.94
2023-01-15T12:56:54.474Z,96157.09
2023-01-15T12:59:27.156Z,96151.47
2023-01-15T13:02:03.337Z,96160.66
2023-01-15T13:04:38.331Z,96166.69
2023-01-15T13:07:24.142Z,96176.13
2023-01-15T13:09:57.807Z,96187.38
2023-01-15T13:12:30.221Z,96180.69
2023-01-15T13:14:59.420Z,96185.69
2023-01-15T13:17:33.741Z,96189.75
2023-01-15T13:20:29.360Z,96206.00
2023-01-15T13:23:12.076Z,96208.16
2023-01-15T13:25:56.851Z,96217.06
2023-01-15T13:28:42.575Z,96220.41
2023-01-15T13:31:21.550Z,96236.47
2023-01-15T13:33:52.395Z,96242.38
2023-01-15T13:36:27.484Z,96233.91
2023-01-15T13:38:58.830Z,96247.75
2023-01-15T13:41:55.326Z,96260.50
2023-01-15T13:44:27.383Z,96263.34
2023-01-15T13:47:03.297Z,96269.97
2023-01-15T13:49:34.476Z,96275.47
2023-01-15T13:52:04.812Z,96291.28
2023-01-15T13:54:35.593Z,96294.28
2023-01-15T13:57:11.503Z,96298.59
2023-01-15T13:59:46.083Z,96303.88
2023-01-15T14:02:30.193Z,96312.69
2023-01-15T14:05:03.582Z,96312.88
2023-01-15T14:07:36.059Z,96323.53
2023-01-15T14:10:20.698Z,96331.53
2023-01-15T14:12:58.923Z,96340.91
2023-01-15T14:15:38.014Z,96342.25
2023-01-15T14:18:18.021Z,96337.97
2023-01-15T14:21:08.955Z,96347.09
2023-01-15T14:23:53.276Z,96347.09
2023-01-15T14:26:26.887Z,96350.81
2023-01-15T14:29:31.604Z,96365.22
2023-01-15T14:32:09.210Z,96375.34
2023-01-15T14:34:38.383Z,96368.41
2023-01-15T14:37:09.241Z,96374.84
2023-01-15T14:39:43.470Z,96374.56
2023-01-15T14:42:34.833Z,96371.66
2023-01-15T14:45:07.258Z,96354.63
2023-01-15T14:47:46.691Z,96364.19
2023-01-15T14:50:39.956Z,96356.50
2023-01-15T14:53:33.356Z,96364.47
2023-01-15T14:56:06.201Z,96367.41
2023-01-15T14:58:49.206Z,96388.22
2023-01-15T15:01:32.199Z,96394.06
2023-01-15T15:04:09.083Z,96390.31
2023-01-15T15:06:46.701Z,96388.22
2023-01-15T15:09:16.538Z,96372.00
2023-01-15T15:15:02.867Z,96391.41
2023-01-15T15:17:45.891Z,96381.84
2023-01-15T15:20:25.424Z,96371.78
2023-01-15T15:22:59.332Z,96380.56
2023-01-15T15:25:32.389Z,96388.78
2023-01-15T15:28:06.255Z,96381.84
2023-01-15T15:30:36.757Z,96383.47
2023-01-15T15:33:08.930Z,96380.25
2023-01-15T15:35:50.312Z,96375.53
2023-01-15T15:38:23.383Z,96388.03
2023-01-15T15:40:53.952Z,96381.09
2023-01-15T15:43:44.412Z,96376.03
2023-01-15T15:46:44.247Z,96383.50
2023-01-15T15:49:13.638Z,96380.84
2023-01-15T15:52:02.513Z,96381.09
2023-01-15T15:54:32.946Z,96382.16
2023-01-15T15:57:09.787Z,96386.69
2023-01-15T15:59:49.266Z,96389.63
2023-01-15T16:02:21.463Z,96395.19
2023-01-15T16:04:53.189Z,96401.59
2023-01-15T16:07:26.985Z,96394.66
2023-01-15T16:09:59.542Z,96398.91
2023-01-15T16:12:33.071Z,96394.16
2023-01-15T16:15:02.527Z,96398.94
2023-01-15T16:17:41.810Z,96398.38
2023-01-15T16:20:15.117Z,96403.16
2023-01-15T16:22:48.605Z,96406.88
2023-01-15T16:25:23.039Z,96409.53
2023-01-15T16:27:52.108Z,96409.81
2023-01-15T16:30:22.349Z,96420.19
2023-01-15T16:32:52.165Z,96426.00
2023-01-15T16:35:23.512Z,96428.94
2023-01-15T16:37:55.894Z,96430.78
2023-01-15T16:40:28.257Z,96431.31
2023-01-15T16:43:09.035Z,96436.63
2023-01-15T16:45:38.848Z,96432.38
2023-01-15T16:48:27.605Z,96437.19
2023-01-15T16:50:58.645Z,96430.00
2023-01-15T16:53:34.911Z,96427.06
2023-01-15T16:56:06.259Z,96424.41
2023-01-15T16:58:38.645Z,96425.75
2023-01-15T17:01:32.167Z,96424.44
2023-01-15T17:04:02.286Z,96423.38
2023-01-15T17:06:31.500Z,96424.41
2023-01-15T17:09:06.051Z,96423.91
2023-01-15T17:11:35.144Z,96420.16
2023-01-15T17:14:21.105Z,96426.56
2023-01-15T17:17:17.447Z,96413.00
2023-01-15T17:19:49.110Z,96419.63
2023-01-15T17:22:22.595Z,96420.19
2023-01-15T17:24:54.582Z,96426.00
2023-01-15T17:27:23.720Z,96421.22
2023-01-15T17:29:52.785Z,96434.25
2023-01-15T17:32:25.577Z,96420.69
2023-01-15T17:34:54.853Z,96437.19
2023-01-15T17:37:23.494Z,96436.09
2023-01-15T17:39:54.353Z,96445.41
2023-01-15T17:42:24.413Z,96440.88
2023-01-15T17:44:53.686Z,96438.22
2023-01-15T17:47:23.296Z,96445.41
2023-01-15T17:49:52.414Z,96437.72
2023-01-15T17:52:46.660Z,96435.56
2023-01-15T17:55:38.501Z,96448.34
2023-01-15T17:58:31.782Z,96452.84
2023-01-15T18:01:23.222Z,96448.34
2023-01-15T18:04:11.154Z,96444.59
2023-01-15T18:06:47.727Z,96443.81
2023-01-15T18:09:18.259Z,96448.84
2023-01-15T18:11:48.858Z,96443.53
2023-01-15T18:14:18.002Z,96446.19
2023-01-15T18:16:47.244Z,96445.94
2023-01-15T18:19:16.897Z,96454.47
2023-01-15T18:21:45.991Z,96455.25
2023-01-15T18:24:14.992Z,96450.75
2023-01-15T18:26:45.380Z,96451.00
2023-01-15T18:29:16.049Z,96455.25
2023-01-15T18:31:45.521Z,96449.91
2023-01-15T18:34:14.547Z,96452.88
2023-01-15T18:36:43.950Z,96449.41
2023-01-15T18:39:15.309Z,96455.78
2023-01-15T18:42:01.733Z,96450.97
2023-01-15T18:44:50.022Z,96450.97
2023-01-15T18:47:19.019Z,96447.81
2023-01-15T18:49:49.574Z,96446.22
2023-01-15T18:52:36.570Z,96453.66
2023-01-15T18:55:06.098Z,96449.94
2023-01-15T18:57:35.917Z,96442.47
2023-01-15T19:00:07.465Z,96449.94
2023-01-15T19:02:40.971Z,96439.81
2023-01-15T19:05:13.420Z,96434.00
2023-01-15T19:07:45.891Z,96437.97
2023-01-15T19:10:16.141Z,96432.41
2023-01-15T19:12:45.699Z,96423.34
2023-01-15T19:15:35.535Z,96427.34
2023-01-15T19:18:22.175Z,96428.16
2023-01-15T19:20:51.214Z,96424.16
2023-01-15T19:23:21.659Z,96427.06
2023-01-15T19:25:50.971Z,96428.16
2023-01-15T19:28:22.383Z,96427.59
2023-01-15T19:31:06.538Z,96422.81
2023-01-15T19:33:36.291Z,96420.94
2023-01-15T19:36:06.075Z,96431.56
2023-01-15T19:38:36.860Z,96421.75
2023-01-15T19:41:48.315Z,96416.44
2023-01-15T19:44:31.234Z,96408.72
2023-01-15T19:47:27.776Z,96413.25
2023-01-15T19:53:13.951Z,96411.09
2023-01-15T19:55:45.635Z,96403.41
2023-01-15T19:58:15.764Z,96399.94
2023-01-15T20:00:51.643Z,96399.16
2023-01-15T20:03:22.138Z,96402.06
2023-01-15T20:05:51.229Z,96397.81
2023-01-15T20:08:20.106Z,96391.69
2023-01-15T20:10:52.941Z,96398.34
2023-01-15T20:13:41.492Z,96397.25
2023-01-15T20:16:16.341Z,96392.50
2023-01-15T20:18:47.130Z,96382.94
2023-01-15T20:21:16.528Z,96383.97
2023-01-15T20:23:46.671Z,96380.81
2023-01-15T20:29:23.564Z,96378.94
2023-01-15T20:31:52.484Z,96380.28
2023-01-15T20:34:22.903Z,96376.00
2023-01-15T20:36:51.994Z,96374.91
2023-01-15T20:39:20.964Z,96364.28
2023-01-15T20:42:10.470Z,96367.75
2023-01-15T20:44:57.579Z,96366.94
2023-01-15T20:47:45.780Z,96357.94
2023-01-15T20:50:17.678Z,96355.28
2023-01-15T20:52:47.137Z,96348.13
2023-01-15T20:55:16.878Z,96340.97
2023-01-15T20:57:53.075Z,96337.50
2023-01-15T21:00:25.643Z,96340.41
2023-01-15T21:02:59.875Z,96342.56
2023-01-15T21:05:31.415Z,96326.63
2023-01-15T21:08:00.524Z,96324.25
2023-01-15T21:10:29.881Z,96327.94
2023-01-15T21:12:58.825Z,96322.88
2023-01-15T21:15:27.928Z,96318.38
2023-01-15T21:17:56.809Z,96315.97
2023-01-15T21:20:25.751Z,96317.34
2023-01-15T21:22:57.859Z,96308.28
2023-01-15T21:25:27.057Z,96308.28
2023-01-15T21:27:55.920Z,96307.78
2023-01-15T21:30:26.079Z,96304.88
2023-01-15T21:32:55.473Z,96299.81
2023-01-15T21:35:24.321Z,96296.59
2023-01-15T21:37:53.658Z,96295.25
2023-01-15T21:40:23.826Z,96297.38
2023-01-15T21:43:15.826Z,96302.16
2023-01-15T21:45:45.546Z,96295.78
2023-01-15T21:48:14.593Z,96286.22
2023-01-15T21:50:43.621Z,96284.63
2023-01-15T21:53:12.911Z,96289.94
2023-01-15T21:55:50.105Z,96284.91
2023-01-15T21:58:19.413Z,96274.03
2023-01-15T22:00:48.419Z,96267.19
2023-01-15T22:03:18.222Z,96273.53
2023-01-15T22:05:47.214Z,96270.91
2023-01-15T22:08:17.444Z,96264.28
2023-01-15T22:10:50.105Z,96268.50
2023-01-15T22:13:22.396Z,96263.44
2023-01-15T22:15:55.485Z,96265.53
2023-01-15T22:18:26.694Z,96259.72
2023-01-15T22:20:59.658Z,96250.19
2023-01-15T22:23:29.217Z,96246.47
2023-01-15T22:25:59.749Z,96247.19
2023-01-15T22:28:28.971Z,96231.84
2023-01-15T22:30:58.252Z,96219.13
2023-01-15T22:33:27.392Z,96220.94
2023-01-15T22:35:59.732Z,96214.63
2023-01-15T22:38:32.281Z,96214.34
2023-01-15T22:41:02.999Z,96208.50
2023-01-15T22:43:38.278Z,96208.00
2023-01-15T22:46:11.162Z,96216.75
2023-01-15T22:48:58.027Z,96198.47
2023-01-15T22:51:27.356Z,96188.41
2023-01-15T22:53:57.291Z,96193.97
2023-01-15T22:56:27.704Z,96186.06
2023-01-15T22:59:06.340Z,96179.19
2023-01-15T23:01:35.754Z,96172.28
2023-01-15T23:04:05.098Z,96170.16
2023-01-15T23:06:34.642Z,96163.25
2023-01-15T23:09:04.574Z,96156.63
2023-01-15T23:11:38.935Z,96155.03
2023-01-15T23:14:07.976Z,96153.72
2023-01-15T23:16:36.782Z,96147.59
2023-01-15T23:19:06.419Z,96142.03
2023-01-15T23:21:38.361Z,96142.81
2023-01-15T23:24:08.266Z,96135.16
2023-01-15T23:27:04.110Z,96131.41
2023-01-15T23:29:34.206Z,96127.47
2023-01-15T23:32:03.476Z,96125.59
2023-01-15T23:34:32.294Z,96121.88
2023-01-15T23:37:01.493Z,96116.84
2023-01-15T23:39:33.254Z,96106.50
2023-01-15T23:42:21.089Z,96092.22
2023-01-15T23:45:10.360Z,96081.59
2023-01-15T23:47:39.665Z,96069.44
2023-01-15T23:50:09.489Z,96072.88
2023-01-15T23:52:41.791Z,96080.03
2023-01-15T23:55:13.915Z,96080.53
2023-01-15T23:57:44.320Z,96076.81
